Time;durP1;ratioP1;P1;durP2;ratioP2;P2;SDS_P1;SDS_P2;PMS_P1;PMS_P2;Temp;Humidity;BMP_temperature;BMP_pressure;BME280_temperature;BME280_humidity;BME280_pressure;Samples;Min_cycle;Max_cycle;Signal;HPM_P1;HPM_P2
2021/12/08 00:00:15;;;;;;;13.47;8.53;;;;;;;;;;5053191;28;20207;-75
2021/12/08 00:02:41;;;;;;;8.37;7.50;;;;;;;;;;5053311;28;20416;-75
2021/12/08 00:05:08;;;;;;;10.63;7.80;;;;;;;;;;5053265;28;20552;-73
2021/12/08 00:07:35;;;;;;;8.20;7.20;;;;;;;;;;5053315;28;20415;-64
2021/12/08 00:15:29;;;;;;;9.17;7.77;;;;;;;;;;5053546;28;20438;-64
2021/12/08 00:17:56;;;;;;;10.00;6.97;;;;;;;;;;5052052;28;20411;-64
2021/12/08 00:20:22;;;;;;;9.90;6.47;;;;;;;;;;5053548;28;20480;-64
2021/12/08 00:22:48;;;;;;;9.60;7.47;;;;;;;;;;5053473;28;20419;-68
2021/12/08 00:25:15;;;;;;;8.80;7.90;;;;;;;;;;5053357;28;20411;-66
2021/12/08 00:27:41;;;;;;;11.27;7.67;;;;;;;;;;5053235;28;20386;-67
2021/12/08 00:30:07;;;;;;;14.50;7.70;;;;;;;;;;5052562;28;20488;-68
2021/12/08 00:32:35;;;;;;;7.27;6.60;;;;;;;;;;5055964;28;20790;-67
2021/12/08 00:35:01;;;;;;;8.10;7.40;;;;;;;;;;5057149;28;20895;-67
2021/12/08 00:37:28;;;;;;;7.90;7.17;;;;;;;;;;5057071;28;20385;-68
2021/12/08 00:39:54;;;;;;;9.07;7.13;;;;;;;;;;5055651;28;20798;-68
2021/12/08 00:42:20;;;;;;;8.63;7.10;;;;;;;;;;5057027;28;20415;-66
2021/12/08 00:44:46;;;;;;;11.00;7.50;;;;;;;;;;5057282;28;20411;-67
2021/12/08 00:47:13;;;;;;;9.23;7.67;;;;;;;;;;5057172;28;20406;-67
2021/12/08 00:49:39;;;;;;;8.57;7.73;;;;;;;;;;5056758;28;20513;-66
2021/12/08 00:52:06;;;;;;;7.77;7.00;;;;;;;;;;5055623;28;20402;-66
2021/12/08 00:54:32;;;;;;;9.07;6.87;;;;;;;;;;5055515;28;20761;-66
2021/12/08 00:56:58;;;;;;;7.80;7.23;;;;;;;;;;5055563;28;20376;-67
2021/12/08 00:59:24;;;;;;;11.40;9.30;;;;;;;;;;5056782;28;20385;-67
2021/12/08 01:01:50;;;;;;;37.47;21.40;;;;;;;;;;5056596;28;20388;-67
2021/12/08 01:04:16;;;;;;;25.63;18.63;;;;;;;;;;5056693;28;20387;-67
2021/12/08 01:06:43;;;;;;;16.77;10.77;;;;;;;;;;5056527;28;20467;-66
2021/12/08 01:09:09;;;;;;;11.30;9.13;;;;;;;;;;5056354;28;20986;-68
2021/12/08 01:11:36;;;;;;;10.63;9.53;;;;;;;;;;5056471;28;20377;-68
2021/12/08 01:14:02;;;;;;;14.17;11.57;;;;;;;;;;5056442;28;20453;-68
2021/12/08 01:16:28;;;;;;;11.83;10.47;;;;;;;;;;5056380;28;20414;-67
2021/12/08 01:18:54;;;;;;;11.03;9.93;;;;;;;;;;5056293;28;20415;-67
2021/12/08 01:21:20;;;;;;;13.53;8.77;;;;;;;;;;5056409;28;20539;-66
2021/12/08 01:23:47;;;;;;;8.30;7.70;;;;;;;;;;5056447;28;20385;-66
2021/12/08 01:26:13;;;;;;;9.70;8.67;;;;;;;;;;5054972;28;20488;-67
2021/12/08 01:28:39;;;;;;;9.00;8.10;;;;;;;;;;5056128;28;20488;-67
2021/12/08 01:31:05;;;;;;;15.67;9.30;;;;;;;;;;5056103;28;20417;-68
2021/12/08 01:33:33;;;;;;;13.53;9.13;;;;;;;;;;5056148;28;20456;-67
2021/12/08 01:36:02;;;;;;;10.60;8.60;;;;;;;;;;5055987;28;20390;-66
2021/12/08 01:38:28;;;;;;;14.60;9.83;;;;;;;;;;5056055;28;20370;-66
2021/12/08 01:40:54;;;;;;;11.37;8.60;;;;;;;;;;5055468;28;20378;-71
2021/12/08 01:43:25;;;;;;;11.50;9.00;;;;;;;;;;5056028;28;20879;-67
2021/12/08 01:46:00;;;;;;;10.20;9.00;;;;;;;;;;5055838;28;20437;-66
2021/12/08 01:48:26;;;;;;;11.23;10.03;;;;;;;;;;5055665;28;20483;-68
2021/12/08 01:50:54;;;;;;;9.97;9.03;;;;;;;;;;5055764;28;20419;-67
2021/12/08 01:53:21;;;;;;;10.90;9.00;;;;;;;;;;5055737;28;20708;-66
2021/12/08 01:55:47;;;;;;;11.07;10.00;;;;;;;;;;5055675;28;20914;-68
2021/12/08 01:58:13;;;;;;;9.37;8.53;;;;;;;;;;5055682;28;20471;-68
2021/12/08 02:00:41;;;;;;;9.40;8.57;;;;;;;;;;5055476;28;20419;-66
2021/12/08 02:03:08;;;;;;;14.23;8.30;;;;;;;;;;5055562;28;20434;-66
2021/12/08 02:05:34;;;;;;;11.93;9.47;;;;;;;;;;5055490;28;20407;-67
2021/12/08 02:08:00;;;;;;;17.87;9.90;;;;;;;;;;5055521;28;20729;-66
2021/12/08 02:10:27;;;;;;;11.20;9.17;;;;;;;;;;5055387;28;20561;-67
2021/12/08 02:12:53;;;;;;;10.80;9.70;;;;;;;;;;5055459;28;20439;-74
2021/12/08 02:15:20;;;;;;;10.20;9.30;;;;;;;;;;5055309;28;20493;-76
2021/12/08 02:17:48;;;;;;;10.60;9.60;;;;;;;;;;5055559;28;20407;-72
2021/12/08 02:20:15;;;;;;;10.97;9.97;;;;;;;;;;5055287;28;20401;-74
2021/12/08 02:22:41;;;;;;;15.00;8.97;;;;;;;;;;5055213;28;20413;-76
2021/12/08 02:25:08;;;;;;;17.90;9.87;;;;;;;;;;5055130;28;20922;-75
2021/12/08 02:27:34;;;;;;;10.07;9.17;;;;;;;;;;5055163;28;20417;-76
2021/12/08 02:30:13;;;;;;;9.23;8.30;;;;;;;;;;5054963;28;20481;-76
2021/12/08 02:48:52;;;;;;;10.47;8.73;;;;;;;;;;5054591;28;20469;-75
2021/12/08 02:51:20;;;;;;;8.33;7.83;;;;;;;;;;5054561;28;20468;-72
2021/12/08 02:53:47;;;;;;;8.10;7.50;;;;;;;;;;5052445;28;20501;-75
2021/12/08 02:56:16;;;;;;;12.63;9.20;;;;;;;;;;5054774;28;20450;-74
2021/12/08 02:58:42;;;;;;;10.93;9.50;;;;;;;;;;5054715;28;20406;-75
2021/12/08 03:01:09;;;;;;;9.20;8.30;;;;;;;;;;5054431;28;20415;-73
2021/12/08 03:03:40;;;;;;;11.53;9.83;;;;;;;;;;5054401;28;20414;-68
2021/12/08 03:06:06;;;;;;;10.83;9.73;;;;;;;;;;5054396;28;20502;-66
2021/12/08 03:08:33;;;;;;;10.60;9.50;;;;;;;;;;5054054;28;20505;-67
2021/12/08 03:11:00;;;;;;;9.10;8.20;;;;;;;;;;5053338;28;20442;-67
2021/12/08 03:13:33;;;;;;;10.30;9.20;;;;;;;;;;5054276;28;20457;-69
2021/12/08 03:15:59;;;;;;;10.70;9.73;;;;;;;;;;5054360;28;20451;-67
2021/12/08 03:18:33;;;;;;;11.43;9.83;;;;;;;;;;5054078;28;20378;-68
2021/12/08 03:20:59;;;;;;;11.20;10.30;;;;;;;;;;5054056;28;20412;-66
2021/12/08 03:23:32;;;;;;;11.30;10.20;;;;;;;;;;5054102;28;20381;-68
2021/12/08 03:26:01;;;;;;;13.60;10.80;;;;;;;;;;5053965;28;20394;-67
2021/12/08 03:28:31;;;;;;;12.27;10.97;;;;;;;;;;5054163;28;20465;-67
2021/12/08 03:31:19;;;;;;;13.70;10.50;;;;;;;;;;5054030;28;20488;-66
2021/12/08 03:33:45;;;;;;;11.63;10.53;;;;;;;;;;5053855;28;20525;-67
2021/12/08 03:36:14;;;;;;;11.83;10.70;;;;;;;;;;5053793;28;20498;-67
2021/12/08 03:38:44;;;;;;;14.90;10.50;;;;;;;;;;5053747;28;20473;-67
2021/12/08 03:41:11;;;;;;;14.23;11.17;;;;;;;;;;5053682;28;20820;-68
2021/12/08 03:43:37;;;;;;;15.53;12.17;;;;;;;;;;5054146;28;20403;-66
2021/12/08 03:46:04;;;;;;;11.27;10.23;;;;;;;;;;5053731;28;20401;-67
2021/12/08 03:48:39;;;;;;;12.77;11.60;;;;;;;;;;5053655;28;20984;-66
2021/12/08 03:51:05;;;;;;;11.13;10.13;;;;;;;;;;5053883;28;20441;-67
2021/12/08 03:53:31;;;;;;;15.37;11.67;;;;;;;;;;5053611;28;20388;-66
2021/12/08 03:55:57;;;;;;;17.20;12.27;;;;;;;;;;5053554;28;20390;-66
2021/12/08 03:58:24;;;;;;;14.33;12.80;;;;;;;;;;5053497;28;20403;-67
2021/12/08 04:00:51;;;;;;;13.97;11.50;;;;;;;;;;5052188;28;20396;-66
2021/12/08 04:03:18;;;;;;;12.70;11.13;;;;;;;;;;5053422;28;20413;-66
2021/12/08 04:05:52;;;;;;;17.20;13.07;;;;;;;;;;5053513;28;20418;-66
2021/12/08 04:08:27;;;;;;;12.37;11.17;;;;;;;;;;5053194;28;20457;-66
2021/12/08 04:10:53;;;;;;;16.17;12.50;;;;;;;;;;5053373;28;20434;-67
2021/12/08 04:13:21;;;;;;;15.53;12.83;;;;;;;;;;5053382;28;20878;-66
2021/12/08 04:15:47;;;;;;;14.33;12.83;;;;;;;;;;5053237;28;20394;-67
2021/12/08 04:18:13;;;;;;;14.07;12.67;;;;;;;;;;5053341;28;20499;-66
2021/12/08 04:20:42;;;;;;;19.77;13.73;;;;;;;;;;5053262;28;20394;-67
2021/12/08 04:23:12;;;;;;;17.30;13.43;;;;;;;;;;5053283;28;20378;-67
2021/12/08 04:25:39;;;;;;;14.93;13.17;;;;;;;;;;5053456;28;20388;-67
2021/12/08 04:28:11;;;;;;;14.07;12.77;;;;;;;;;;5053258;28;20468;-67
2021/12/08 04:30:46;;;;;;;11.30;10.40;;;;;;;;;;5053212;28;20517;-66
2021/12/08 04:33:12;;;;;;;8.37;7.67;;;;;;;;;;5053167;28;20805;-67
2021/12/08 04:35:39;;;;;;;5.37;5.07;;;;;;;;;;5051897;28;20424;-66
2021/12/08 04:38:07;;;;;;;5.80;5.40;;;;;;;;;;5053115;28;20401;-67
2021/12/08 04:41:11;;;;;;;6.60;4.43;;;;;;;;;;5053088;28;20801;-67
2021/12/08 04:48:47;;;;;;;2.53;2.43;;;;;;;;;;5052919;28;20406;-67
2021/12/08 05:04:52;;;;;;;1.70;1.70;;;;;;;;;;5053164;28;20399;-67
2021/12/08 05:09:57;;;;;;;2.27;1.27;;;;;;;;;;5052693;28;20471;-67
2021/12/08 05:12:26;;;;;;;1.93;1.77;;;;;;;;;;5052786;28;20449;-68
2021/12/08 05:14:52;;;;;;;1.57;1.57;;;;;;;;;;5053105;28;20767;-67
2021/12/08 05:17:21;;;;;;;1.20;1.20;;;;;;;;;;5055196;28;20385;-68
2021/12/08 05:19:49;;;;;;;1.87;1.77;;;;;;;;;;5056370;28;20390;-67
2021/12/08 05:22:18;;;;;;;1.90;1.90;;;;;;;;;;5056337;28;20442;-67
2021/12/08 05:24:47;;;;;;;4.80;4.40;;;;;;;;;;5056355;28;20488;-67
2021/12/08 05:27:21;;;;;;;3.00;2.80;;;;;;;;;;5056214;28;20878;-67
2021/12/08 05:29:52;;;;;;;5.50;5.10;;;;;;;;;;5056082;28;20500;-68
2021/12/08 05:32:18;;;;;;;21.07;14.73;;;;;;;;;;5056053;28;20415;-68
2021/12/08 05:34:44;;;;;;;3.00;2.90;;;;;;;;;;5056103;28;20407;-68
2021/12/08 05:37:12;;;;;;;2.13;2.00;;;;;;;;;;5054769;28;20777;-67
2021/12/08 05:39:38;;;;;;;2.03;1.93;;;;;;;;;;5054709;28;20427;-67
2021/12/08 05:42:08;;;;;;;15.53;11.37;;;;;;;;;;5055971;28;20403;-71
2021/12/08 05:44:34;;;;;;;1.80;1.80;;;;;;;;;;5054853;28;20762;-69
2021/12/08 05:47:01;;;;;;;2.37;2.27;;;;;;;;;;5055833;28;20473;-73
2021/12/08 05:49:28;;;;;;;2.10;2.00;;;;;;;;;;5055809;28;20576;-73
2021/12/08 05:51:55;;;;;;;2.40;2.23;;;;;;;;;;5054667;28;20770;-72
2021/12/08 05:54:23;;;;;;;2.30;2.20;;;;;;;;;;5055696;28;20403;-71
2021/12/08 05:56:49;;;;;;;2.10;2.10;;;;;;;;;;5055565;28;20890;-71
2021/12/08 05:59:16;;;;;;;2.00;1.80;;;;;;;;;;5055605;28;20490;-71
2021/12/08 06:01:45;;;;;;;1.87;1.77;;;;;;;;;;5055511;28;20967;-76
2021/12/08 06:04:11;;;;;;;2.00;2.00;;;;;;;;;;5055566;28;20407;-72
2021/12/08 06:06:38;;;;;;;4.37;2.20;;;;;;;;;;5055431;28;20437;-72
2021/12/08 06:09:05;;;;;;;2.03;1.90;;;;;;;;;;5053940;28;20494;-73
2021/12/08 06:11:32;;;;;;;1.90;1.50;;;;;;;;;;5054114;28;20921;-72
2021/12/08 06:13:59;;;;;;;1.40;1.40;;;;;;;;;;5055450;28;20461;-73
2021/12/08 06:16:26;;;;;;;2.10;2.00;;;;;;;;;;5055182;28;20473;-71
2021/12/08 06:18:52;;;;;;;2.40;2.30;;;;;;;;;;5055261;28;20462;-76
2021/12/08 06:21:20;;;;;;;2.43;2.07;;;;;;;;;;5055128;28;20446;-70
2021/12/08 06:23:46;;;;;;;1.77;1.67;;;;;;;;;;5055184;28;20412;-68
2021/12/08 06:26:14;;;;;;;1.77;1.67;;;;;;;;;;5055083;28;20805;-68
2021/12/08 06:28:40;;;;;;;2.60;1.50;;;;;;;;;;5055032;28;20955;-68
2021/12/08 06:31:07;;;;;;;2.27;2.07;;;;;;;;;;5055027;28;20914;-67
2021/12/08 06:33:34;;;;;;;1.60;1.60;;;;;;;;;;5054986;28;20395;-67
2021/12/08 06:36:06;;;;;;;1.47;1.43;;;;;;;;;;5054738;28;20494;-67
2021/12/08 06:38:32;;;;;;;1.73;1.10;;;;;;;;;;5055154;28;20434;-67
2021/12/08 06:41:01;;;;;;;1.33;1.23;;;;;;;;;;5054812;28;20416;-67
2021/12/08 06:43:30;;;;;;;1.67;1.57;;;;;;;;;;5054816;28;20395;-67
2021/12/08 06:45:57;;;;;;;3.53;1.40;;;;;;;;;;5054707;28;20415;-68
2021/12/08 06:48:27;;;;;;;1.20;1.20;;;;;;;;;;5054549;28;20399;-68
2021/12/08 06:51:06;;;;;;;1.57;1.00;;;;;;;;;;5054576;28;20458;-67
2021/12/08 06:53:32;;;;;;;1.53;1.10;;;;;;;;;;5054668;28;20399;-67
2021/12/08 06:56:01;;;;;;;1.20;0.90;;;;;;;;;;5054497;28;20411;-67
2021/12/08 06:58:29;;;;;;;0.90;0.90;;;;;;;;;;5054481;28;20882;-67
2021/12/08 07:03:46;;;;;;;1.07;1.07;;;;;;;;;;5054640;28;20469;-68
2021/12/08 07:06:40;;;;;;;0.90;0.90;;;;;;;;;;5054385;28;20407;-70
2021/12/08 07:09:05;;;;;;;2.57;1.20;;;;;;;;;;5053980;28;20580;-68
2021/12/08 07:11:31;;;;;;;6.00;1.87;;;;;;;;;;5054301;28;20411;-69
2021/12/08 07:13:57;;;;;;;2.10;0.90;;;;;;;;;;5054209;28;20411;-70
2021/12/08 07:16:28;;;;;;;2.60;0.80;;;;;;;;;;5054095;28;20411;-70
2021/12/08 07:19:10;;;;;;;1.10;1.10;;;;;;;;;;5054097;28;20976;-69
2021/12/08 07:21:38;;;;;;;3.70;0.90;;;;;;;;;;5054010;28;20556;-69
2021/12/08 07:24:07;;;;;;;2.10;1.73;;;;;;;;;;5054002;28;20439;-69
2021/12/08 07:26:34;;;;;;;1.17;0.90;;;;;;;;;;5054080;28;20460;-69
2021/12/08 07:29:00;;;;;;;1.90;1.30;;;;;;;;;;5053845;28;20454;-68
2021/12/08 07:31:34;;;;;;;1.57;1.37;;;;;;;;;;5053743;28;20480;-69
2021/12/08 07:34:05;;;;;;;1.23;1.23;;;;;;;;;;5053825;28;20437;-69
2021/12/08 07:36:34;;;;;;;1.13;1.13;;;;;;;;;;5053893;28;20890;-69
2021/12/08 07:39:01;;;;;;;6.23;1.90;;;;;;;;;;5053697;28;20805;-69
2021/12/08 07:41:30;;;;;;;1.00;1.00;;;;;;;;;;5053707;28;20402;-68
2021/12/08 07:43:58;;;;;;;1.30;1.30;;;;;;;;;;5053766;28;20402;-68
2021/12/08 07:46:32;;;;;;;2.13;1.00;;;;;;;;;;5053646;28;20460;-69
2021/12/08 07:49:03;;;;;;;1.27;0.93;;;;;;;;;;5053640;28;20466;-69
2021/12/08 07:51:32;;;;;;;1.37;1.20;;;;;;;;;;5053515;28;20526;-68
2021/12/08 07:54:01;;;;;;;1.10;1.10;;;;;;;;;;5053513;28;20395;-68
2021/12/08 07:56:28;;;;;;;1.63;0.73;;;;;;;;;;5053614;28;20440;-69
2021/12/08 07:58:56;;;;;;;1.67;1.20;;;;;;;;;;5053518;28;20396;-69
2021/12/08 08:01:30;;;;;;;1.23;1.20;;;;;;;;;;5053508;28;20429;-69
2021/12/08 08:03:56;;;;;;;5.40;1.23;;;;;;;;;;5053680;28;20406;-68
2021/12/08 08:06:36;;;;;;;2.40;2.30;;;;;;;;;;5053475;28;20768;-68
2021/12/08 08:09:04;;;;;;;1.30;1.20;;;;;;;;;;5053140;28;20490;-68
2021/12/08 08:11:32;;;;;;;6.67;1.47;;;;;;;;;;5053434;28;20498;-68
2021/12/08 08:14:04;;;;;;;1.20;1.20;;;;;;;;;;5053594;28;20404;-68
2021/12/08 08:16:33;;;;;;;2.63;1.60;;;;;;;;;;5051975;28;20415;-68
2021/12/08 08:19:06;;;;;;;2.47;1.73;;;;;;;;;;5053544;28;20403;-68
2021/12/08 08:21:35;;;;;;;1.67;1.57;;;;;;;;;;5053586;28;20415;-68
2021/12/08 08:24:01;;;;;;;1.50;1.40;;;;;;;;;;5053208;28;20395;-68
2021/12/08 08:26:28;;;;;;;1.63;1.53;;;;;;;;;;5053210;28;20409;-68
2021/12/08 08:28:54;;;;;;;3.13;2.93;;;;;;;;;;5053167;28;20556;-68
2021/12/08 08:31:30;;;;;;;3.60;2.30;;;;;;;;;;5053089;28;20925;-68
2021/12/08 08:33:56;;;;;;;4.53;3.03;;;;;;;;;;5053137;28;20399;-68
2021/12/08 08:36:24;;;;;;;2.57;2.37;;;;;;;;;;5053175;28;20415;-68
2021/12/08 08:38:50;;;;;;;3.57;3.27;;;;;;;;;;5053186;28;20396;-69
2021/12/08 08:41:25;;;;;;;3.87;2.90;;;;;;;;;;5052942;28;20408;-69
2021/12/08 08:43:52;;;;;;;2.23;2.13;;;;;;;;;;5053037;28;20436;-68
2021/12/08 08:46:23;;;;;;;3.37;2.20;;;;;;;;;;5053033;28;20411;-68
2021/12/08 08:48:52;;;;;;;4.83;3.20;;;;;;;;;;5052958;28;20570;-69
2021/12/08 08:51:21;;;;;;;3.20;3.10;;;;;;;;;;5053972;28;20427;-69
2021/12/08 08:53:49;;;;;;;4.63;3.67;;;;;;;;;;5056857;28;20402;-69
2021/12/08 08:56:18;;;;;;;3.00;2.90;;;;;;;;;;5056649;28;20430;-69
2021/12/08 08:58:46;;;;;;;1.80;1.80;;;;;;;;;;5056833;28;20402;-69
2021/12/08 09:01:15;;;;;;;3.50;3.10;;;;;;;;;;5056708;28;20940;-69
2021/12/08 09:03:43;;;;;;;2.93;2.00;;;;;;;;;;5056560;28;20395;-69
2021/12/08 09:06:11;;;;;;;2.30;2.10;;;;;;;;;;5056661;28;20433;-68
2021/12/08 09:08:39;;;;;;;4.37;4.10;;;;;;;;;;5056404;28;20465;-69
2021/12/08 09:11:15;;;;;;;3.90;3.70;;;;;;;;;;5056569;28;20460;-68
2021/12/08 09:13:52;;;;;;;3.63;3.27;;;;;;;;;;5056545;28;20483;-68
2021/12/08 09:16:28;;;;;;;3.67;3.30;;;;;;;;;;5055609;28;20456;-70
2021/12/08 09:19:01;;;;;;;2.83;2.70;;;;;;;;;;5056242;28;20399;-70
2021/12/08 09:21:27;;;;;;;2.63;2.10;;;;;;;;;;5055875;28;20411;-67
2021/12/08 09:24:02;;;;;;;2.17;2.07;;;;;;;;;;5056310;28;20403;-67
2021/12/08 09:26:32;;;;;;;2.80;2.60;;;;;;;;;;5056210;28;20405;-67
2021/12/08 09:29:00;;;;;;;2.50;2.30;;;;;;;;;;5055952;28;20493;-67
2021/12/08 09:31:29;;;;;;;1.70;1.60;;;;;;;;;;5056096;28;20407;-66
2021/12/08 09:33:58;;;;;;;1.50;1.50;;;;;;;;;;5056119;28;20395;-68
2021/12/08 09:36:32;;;;;;;1.50;1.50;;;;;;;;;;5056140;28;20928;-68
2021/12/08 09:39:04;;;;;;;1.20;1.10;;;;;;;;;;5056064;28;20411;-67
2021/12/08 09:41:37;;;;;;;6.50;1.47;;;;;;;;;;5054792;28;20913;-67
2021/12/08 09:44:12;;;;;;;2.27;2.17;;;;;;;;;;5055843;28;20402;-67
2021/12/08 09:46:40;;;;;;;1.43;1.43;;;;;;;;;;5054508;28;20434;-68
2021/12/08 09:49:07;;;;;;;1.53;0.80;;;;;;;;;;5054479;28;20466;-68
2021/12/08 09:51:33;;;;;;;1.40;1.00;;;;;;;;;;5055738;28;20411;-68
2021/12/08 09:54:00;;;;;;;1.33;0.70;;;;;;;;;;5055716;28;20392;-67
2021/12/08 09:56:26;;;;;;;1.30;1.20;;;;;;;;;;5055742;28;20407;-69
2021/12/08 09:58:53;;;;;;;0.83;0.83;;;;;;;;;;5055916;28;20407;-68
2021/12/08 10:01:22;;;;;;;1.13;1.13;;;;;;;;;;5055672;28;20421;-68
2021/12/08 10:03:49;;;;;;;1.90;1.20;;;;;;;;;;5055435;28;20395;-68
2021/12/08 10:06:16;;;;;;;5.90;1.00;;;;;;;;;;5055824;28;20415;-68
2021/12/08 10:08:43;;;;;;;0.90;0.90;;;;;;;;;;5055359;28;20968;-69
2021/12/08 10:11:09;;;;;;;1.00;1.00;;;;;;;;;;5055558;28;20414;-69
2021/12/08 10:13:35;;;;;;;3.37;1.67;;;;;;;;;;5055435;28;20889;-69
2021/12/08 10:16:01;;;;;;;6.43;1.93;;;;;;;;;;5055405;28;20434;-70
2021/12/08 10:18:28;;;;;;;2.90;2.80;;;;;;;;;;5055240;28;20399;-68
2021/12/08 10:20:55;;;;;;;1.20;1.10;;;;;;;;;;5055238;28;20411;-72
2021/12/08 10:23:30;;;;;;;1.17;1.17;;;;;;;;;;5055248;28;20412;-69
2021/12/08 10:25:56;;;;;;;1.23;1.23;;;;;;;;;;5053855;28;20472;-69
2021/12/08 10:28:30;;;;;;;2.27;1.23;;;;;;;;;;5055244;28;20494;-69
2021/12/08 10:31:16;;;;;;;1.13;0.90;;;;;;;;;;5055034;28;20960;-69
2021/12/08 10:34:00;;;;;;;1.43;1.43;;;;;;;;;;5054883;28;20465;-69
2021/12/08 10:38:59;;;;;;;2.83;2.60;;;;;;;;;;5054887;28;20496;-69
2021/12/08 10:41:25;;;;;;;3.07;2.97;;;;;;;;;;5054838;28;20434;-68
2021/12/08 10:43:59;;;;;;;2.93;1.90;;;;;;;;;;5054792;28;20878;-69
2021/12/08 10:46:33;;;;;;;2.13;1.97;;;;;;;;;;5054664;28;20469;-69
2021/12/08 10:49:12;;;;;;;1.63;1.63;;;;;;;;;;5055263;28;20451;-71
2021/12/08 10:54:35;;;;;;;1.70;1.70;;;;;;;;;;5053408;28;20926;-69
2021/12/08 10:57:03;;;;;;;2.60;1.50;;;;;;;;;;5054924;28;20419;-69
2021/12/08 10:59:49;;;;;;;2.40;2.30;;;;;;;;;;5054547;28;20476;-69
2021/12/08 11:02:34;;;;;;;2.47;2.27;;;;;;;;;;5054314;28;20411;-69
2021/12/08 11:05:00;;;;;;;2.20;1.70;;;;;;;;;;5054428;28;20400;-69
2021/12/08 11:07:26;;;;;;;1.40;1.40;;;;;;;;;;5054281;28;20411;-68
2021/12/08 11:09:52;;;;;;;1.97;1.57;;;;;;;;;;5053990;28;20497;-67
2021/12/08 11:12:18;;;;;;;3.60;1.77;;;;;;;;;;5054278;28;20883;-70
2021/12/08 11:14:48;;;;;;;6.07;1.37;;;;;;;;;;5053483;28;20434;-69
2021/12/08 11:17:25;;;;;;;2.67;1.70;;;;;;;;;;5054063;28;20442;-68
2021/12/08 11:20:10;;;;;;;5.77;2.67;;;;;;;;;;5054155;28;20453;-70
2021/12/08 11:22:37;;;;;;;2.40;2.20;;;;;;;;;;5053987;28;20460;-68
2021/12/08 11:25:03;;;;;;;3.57;2.67;;;;;;;;;;5054263;28;20411;-70
2021/12/08 11:27:33;;;;;;;3.30;2.97;;;;;;;;;;5053962;28;20399;-68
2021/12/08 11:30:10;;;;;;;2.80;2.70;;;;;;;;;;5054161;28;20462;-69
2021/12/08 11:32:37;;;;;;;4.97;2.50;;;;;;;;;;5053861;28;20407;-67
2021/12/08 11:35:03;;;;;;;2.20;2.00;;;;;;;;;;5053870;28;20402;-67
2021/12/08 11:37:34;;;;;;;4.20;1.97;;;;;;;;;;5053841;28;20528;-67
2021/12/08 11:40:02;;;;;;;5.43;2.17;;;;;;;;;;5053675;28;20460;-67
2021/12/08 11:42:33;;;;;;;4.57;2.10;;;;;;;;;;5053990;28;20430;-67
2021/12/08 11:45:02;;;;;;;2.70;1.90;;;;;;;;;;5053749;28;20488;-67
2021/12/08 11:47:33;;;;;;;3.13;2.20;;;;;;;;;;5053590;28;20415;-67
2021/12/08 11:50:01;;;;;;;2.73;1.70;;;;;;;;;;5053785;28;20462;-67
2021/12/08 11:52:32;;;;;;;3.63;1.33;;;;;;;;;;5053621;28;20491;-67
2021/12/08 11:55:02;;;;;;;6.00;2.23;;;;;;;;;;5053797;28;20759;-68
2021/12/08 11:57:33;;;;;;;5.13;2.33;;;;;;;;;;5053754;28;20434;-69
2021/12/08 12:00:06;;;;;;;4.17;1.80;;;;;;;;;;5053492;28;20411;-71
2021/12/08 12:02:35;;;;;;;3.00;1.70;;;;;;;;;;5053361;28;20415;-70
2021/12/08 12:05:01;;;;;;;2.40;1.40;;;;;;;;;;5053643;28;20415;-69
2021/12/08 12:07:27;;;;;;;4.67;1.80;;;;;;;;;;5053404;28;20399;-69
2021/12/08 12:09:54;;;;;;;1.87;1.40;;;;;;;;;;5053214;28;20844;-69
2021/12/08 12:12:20;;;;;;;3.77;2.30;;;;;;;;;;5053394;28;20410;-69
2021/12/08 12:14:46;;;;;;;3.53;3.20;;;;;;;;;;5053558;28;20747;-69
2021/12/08 12:17:12;;;;;;;4.20;3.13;;;;;;;;;;5053292;28;20469;-69
2021/12/08 12:19:42;;;;;;;3.90;2.37;;;;;;;;;;5053320;28;20460;-69
2021/12/08 12:22:08;;;;;;;4.60;2.70;;;;;;;;;;5051960;28;20766;-70
2021/12/08 12:24:49;;;;;;;28.30;16.47;;;;;;;;;;5053262;28;20422;-72
2021/12/08 12:27:21;;;;;;;11.10;6.57;;;;;;;;;;5057467;28;20461;-69
2021/12/08 12:30:09;;;;;;;31.40;11.93;;;;;;;;;;5057243;28;20462;-68
2021/12/08 12:32:46;;;;;;;25.63;14.87;;;;;;;;;;5057168;28;20414;-68
2021/12/08 12:35:14;;;;;;;29.00;14.97;;;;;;;;;;5057154;28;20390;-67
2021/12/08 12:37:41;;;;;;;52.67;29.17;;;;;;;;;;5057150;28;20378;-68
2021/12/08 12:40:09;;;;;;;6.90;5.53;;;;;;;;;;5055755;28;20411;-67
2021/12/08 12:42:44;;;;;;;3.07;2.50;;;;;;;;;;5057149;28;20414;-67
2021/12/08 12:45:12;;;;;;;5.50;1.80;;;;;;;;;;5057009;28;20398;-67
2021/12/08 12:47:39;;;;;;;1.73;1.63;;;;;;;;;;5056879;28;20921;-67
2021/12/08 12:50:05;;;;;;;3.20;1.67;;;;;;;;;;5056920;28;20470;-67
2021/12/08 12:52:36;;;;;;;4.87;1.80;;;;;;;;;;5055598;28;20438;-68
2021/12/08 12:55:06;;;;;;;2.43;2.17;;;;;;;;;;5056921;28;20422;-68
2021/12/08 12:57:32;;;;;;;1.50;1.40;;;;;;;;;;5055755;28;20792;-68
2021/12/08 12:59:58;;;;;;;2.73;1.70;;;;;;;;;;5056887;28;20427;-67
2021/12/08 13:02:35;;;;;;;3.77;2.33;;;;;;;;;;5056628;28;20452;-67
2021/12/08 13:05:08;;;;;;;31.93;3.80;;;;;;;;;;5056674;28;20915;-68
2021/12/08 13:07:39;;;;;;;6.30;3.10;;;;;;;;;;5056961;28;20528;-68
2021/12/08 13:10:15;;;;;;;6.87;3.10;;;;;;;;;;5056405;28;21000;-67
2021/12/08 13:12:42;;;;;;;3.77;2.90;;;;;;;;;;5056767;28;20481;-67
2021/12/08 13:15:34;;;;;;;8.20;5.63;;;;;;;;;;5056554;28;20445;-67
2021/12/08 13:18:05;;;;;;;14.20;9.77;;;;;;;;;;5055191;28;20418;-68
2021/12/08 13:20:50;;;;;;;11.90;8.77;;;;;;;;;;5056442;28;20453;-67
2021/12/08 13:23:19;;;;;;;9.07;7.17;;;;;;;;;;5056331;28;20953;-68
2021/12/08 13:28:45;;;;;;;8.90;5.03;;;;;;;;;;5056334;28;20482;-70
2021/12/08 13:34:02;;;;;;;8.60;3.30;;;;;;;;;;5056485;28;20985;-69
2021/12/08 13:36:31;;;;;;;9.77;6.20;;;;;;;;;;5055784;28;20772;-68
2021/12/08 13:38:57;;;;;;;10.73;8.60;;;;;;;;;;5055804;28;20399;-68
2021/12/08 13:41:25;;;;;;;15.87;8.40;;;;;;;;;;5056150;28;20422;-68
2021/12/08 13:43:51;;;;;;;10.93;8.00;;;;;;;;;;5056055;28;20395;-69
2021/12/08 13:46:36;;;;;;;8.10;6.97;;;;;;;;;;5055900;28;20901;-69
2021/12/08 13:49:14;;;;;;;8.87;7.30;;;;;;;;;;5054582;28;20462;-68
2021/12/08 13:51:40;;;;;;;7.53;6.70;;;;;;;;;;5055838;28;20472;-67
2021/12/08 13:54:26;;;;;;;12.17;7.53;;;;;;;;;;5055876;28;20391;-73
2021/12/08 13:56:53;;;;;;;7.83;6.33;;;;;;;;;;5054672;28;20481;-76
2021/12/08 13:59:38;;;;;;;9.80;5.97;;;;;;;;;;5055947;28;20406;-77
2021/12/08 14:02:39;;;;;;;8.30;6.60;;;;;;;;;;5055621;28;20415;-79
2021/12/08 14:05:14;;;;;;;12.23;8.50;;;;;;;;;;5034485;28;20944;-78
2021/12/08 14:07:45;;;;;;;11.40;5.90;;;;;;;;;;5053871;28;20418;-67
2021/12/08 14:10:13;;;;;;;9.30;7.00;;;;;;;;;;5056763;28;20517;-79
2021/12/08 14:12:47;;;;;;;14.93;8.87;;;;;;;;;;5055522;28;20408;-77
2021/12/08 14:15:18;;;;;;;9.13;6.40;;;;;;;;;;5055736;28;20537;-75
2021/12/08 14:17:44;;;;;;;19.93;12.73;;;;;;;;;;5055409;28;20426;-80
2021/12/08 14:20:30;;;;;;;20.90;14.07;;;;;;;;;;5055813;28;20407;-75
2021/12/08 14:22:56;;;;;;;12.97;10.30;;;;;;;;;;5055640;28;20490;-75
2021/12/08 14:25:32;;;;;;;10.57;6.87;;;;;;;;;;5055349;28;20400;-64
2021/12/08 14:27:58;;;;;;;11.57;8.20;;;;;;;;;;5055361;28;20407;-79
2021/12/08 14:30:24;;;;;;;8.90;7.63;;;;;;;;;;5055033;28;20825;-65
2021/12/08 14:33:01;;;;;;;20.20;11.20;;;;;;;;;;5054914;28;20411;-65
2021/12/08 14:35:26;;;;;;;12.27;8.20;;;;;;;;;;5054958;28;20429;-66
2021/12/08 14:38:06;;;;;;;9.53;7.87;;;;;;;;;;5053553;28;20522;-66
2021/12/08 14:40:32;;;;;;;14.17;8.70;;;;;;;;;;5053576;28;20448;-65
2021/12/08 14:42:58;;;;;;;9.77;7.83;;;;;;;;;;5054836;28;20418;-64
2021/12/08 14:45:31;;;;;;;11.87;7.17;;;;;;;;;;5054825;28;20406;-66
2021/12/08 14:47:57;;;;;;;7.50;6.17;;;;;;;;;;5054751;28;20422;-65
2021/12/08 14:50:23;;;;;;;9.87;5.50;;;;;;;;;;5053710;28;20470;-64
2021/12/08 14:52:50;;;;;;;10.63;5.90;;;;;;;;;;5054724;28;20878;-65
2021/12/08 14:55:21;;;;;;;13.83;6.80;;;;;;;;;;5054452;28;20491;-65
2021/12/08 14:57:51;;;;;;;10.13;7.10;;;;;;;;;;5054503;28;20457;-65
2021/12/08 15:00:18;;;;;;;12.03;7.17;;;;;;;;;;5054856;28;20759;-67
2021/12/08 15:03:06;;;;;;;11.07;6.90;;;;;;;;;;5054666;28;20468;-67
2021/12/08 15:05:32;;;;;;;12.50;7.67;;;;;;;;;;5054400;28;20399;-67
2021/12/08 15:08:11;;;;;;;19.30;12.73;;;;;;;;;;5054266;28;20378;-65
2021/12/08 15:10:38;;;;;;;14.33;10.00;;;;;;;;;;5054253;28;20466;-65
2021/12/08 15:13:07;;;;;;;20.77;11.77;;;;;;;;;;5054351;28;20430;-65
2021/12/08 15:15:33;;;;;;;21.17;10.97;;;;;;;;;;5054242;28;20403;-65
2021/12/08 15:18:01;;;;;;;23.07;6.07;;;;;;;;;;5054191;28;20407;-65
2021/12/08 15:20:37;;;;;;;15.60;8.07;;;;;;;;;;5054167;28;20400;-65
2021/12/08 15:23:11;;;;;;;7.10;6.40;;;;;;;;;;5054102;28;20435;-68
2021/12/08 15:25:37;;;;;;;11.93;6.77;;;;;;;;;;5054313;28;20433;-66
2021/12/08 15:28:05;;;;;;;9.63;7.47;;;;;;;;;;5054017;28;20399;-65
2021/12/08 15:30:55;;;;;;;8.07;7.30;;;;;;;;;;5053892;28;20467;-66
2021/12/08 15:33:22;;;;;;;13.83;6.73;;;;;;;;;;5050992;28;20910;-67
2021/12/08 15:35:48;;;;;;;10.13;7.50;;;;;;;;;;5052620;28;20431;-66
2021/12/08 15:38:15;;;;;;;8.53;5.47;;;;;;;;;;5053848;28;20452;-67
2021/12/08 15:40:44;;;;;;;7.60;5.17;;;;;;;;;;5053878;28;21000;-68
2021/12/08 15:43:13;;;;;;;7.27;5.87;;;;;;;;;;5053728;28;20418;-67
2021/12/08 15:45:40;;;;;;;21.07;10.87;;;;;;;;;;5053712;28;20407;-65